KBFL/BFL METAR and TAF weather

Enter ICAO airport designator
Station Type Date Time Source
KBFL METAR 2019/11/18 11:54 UTC NOAA

KBFL 181154Z AUTO 06004KT 5SM R30R/2600VP6000FT CLR 11/07 A3001 RMK AO2 SLP158 T01110072 10144 20106 56009


Station Type Date Time Source
KBFL Decoded METAR 2019/11/18 11:54 UTC NOAA

BAKERSFIELD MEADOWS FIELD, CA, United States (KBFL) 35-26N 119-03W 151M
Nov 18, 2019 - 06:54 AM EST / 2019.11.18 1154 UTC
Wind: from the ENE (060 degrees) at 5 MPH (4 KT):0
Visibility: 5 mile(s):0
Sky conditions: clear
Temperature: 52.0 F (11.1 C)
Dew Point: 45.0 F (7.2 C)
Relative Humidity: 76%
Pressure (altimeter): 30.01 in. Hg (1016 hPa)
Pressure tendency: 0.03 inches (0.9 hPa) lower than three hours ago
ob: KBFL 181154Z AUTO 06004KT 5SM R30R/2600VP6000FT CLR 11/07 A3001 RMK AO2 SLP158 T01110072 10144 20106 56009
cycle: 12

Station Type Date Time Source
KBFL TAF 2019/11/18 12:36 UTC NOAA

TAF KBFL 181134Z 1812/1912 VRB04KT 5SM HZ SKC

Example: see airport list